createdAt,value
2022-12-09T00:01:20.576Z,96547.06
2022-12-09T00:03:47.591Z,96563.25
2022-12-09T00:06:20.482Z,96565.13
2022-12-09T00:08:47.813Z,96556.31
2022-12-09T00:11:14.727Z,96551.63
2022-12-09T00:13:41.638Z,96549.47
2022-12-09T00:16:11.017Z,96540.81
2022-12-09T00:18:41.771Z,96533.94
2022-12-09T00:21:22.702Z,96535.88
2022-12-09T00:23:50.707Z,96537.47
2022-12-09T00:26:18.855Z,96526.13
2022-12-09T00:28:46.124Z,96520.00
2022-12-09T00:31:15.885Z,96529.56
2022-12-09T00:33:42.596Z,96526.31
2022-12-09T00:36:16.703Z,96528.34
2022-12-09T00:38:44.090Z,96513.19
2022-12-09T00:41:11.634Z,96516.50
2022-12-09T00:43:44.732Z,96501.22
2022-12-09T00:46:12.716Z,96492.84
2022-12-09T00:48:40.222Z,96494.13
2022-12-09T00:51:12.199Z,96497.19
2022-12-09T00:53:42.204Z,96464.88
2022-12-09T00:56:12.254Z,96475.03
2022-12-09T00:58:42.404Z,96472.47
2022-12-09T01:01:11.817Z,96471.97
2022-12-09T01:03:43.025Z,96474.13
2022-12-09T01:06:19.830Z,96464.59
2022-12-09T01:08:47.056Z,96476.91
2022-12-09T01:11:26.487Z,96475.78
2022-12-09T01:13:54.681Z,96474.81
2022-12-09T01:16:26.998Z,96465.72
2022-12-09T01:18:55.673Z,96477.34
2022-12-09T01:21:22.261Z,96479.00
2022-12-09T01:23:48.836Z,96482.28
2022-12-09T01:26:15.458Z,96471.19
2022-12-09T01:28:45.505Z,96480.91
2022-12-09T01:31:17.890Z,96479.97
2022-12-09T01:33:44.708Z,96477.66
2022-12-09T01:36:20.981Z,96475.13
2022-12-09T01:38:48.166Z,96479.50
2022-12-09T01:41:17.213Z,96474.34
2022-12-09T01:43:44.837Z,96463.78
2022-12-09T01:46:14.685Z,96447.59
2022-12-09T01:48:46.654Z,96462.38
2022-12-09T01:51:19.863Z,96460.41
2022-12-09T01:53:49.631Z,96469.00
2022-12-09T01:56:29.274Z,96460.31
2022-12-09T01:58:59.190Z,96464.97
2022-12-09T02:01:26.032Z,96465.84
2022-12-09T02:03:52.748Z,96453.91
2022-12-09T02:06:19.668Z,96445.38
2022-12-09T02:08:47.991Z,96444.31
2022-12-09T02:11:40.709Z,96445.66
2022-12-09T02:14:21.744Z,96436.78
2022-12-09T02:17:17.180Z,96443.31
2022-12-09T02:19:53.877Z,96431.31
2022-12-09T02:22:27.298Z,96426.47
2022-12-09T02:25:03.506Z,96432.22
2022-12-09T02:27:45.117Z,96413.50
2022-12-09T02:30:24.573Z,96426.19
2022-12-09T02:33:02.817Z,96430.28
2022-12-09T02:35:54.280Z,96431.03
2022-12-09T02:38:25.307Z,96413.75
2022-12-09T02:41:01.404Z,96423.06
2022-12-09T02:43:32.871Z,96412.00
2022-12-09T02:46:01.022Z,96405.38
2022-12-09T02:48:37.214Z,96413.00
2022-12-09T02:51:07.566Z,96395.41
2022-12-09T02:53:36.424Z,96392.66
2022-12-09T02:56:05.719Z,96415.97
2022-12-09T02:58:32.476Z,96399.44
2022-12-09T03:00:59.805Z,96397.38
2022-12-09T03:03:29.333Z,96395.50
2022-12-09T03:06:24.193Z,96393.22
2022-12-09T03:09:03.499Z,96398.66
2022-12-09T03:11:32.810Z,96382.88
2022-12-09T03:14:18.978Z,96373.06
2022-12-09T03:17:01.492Z,96391.31
2022-12-09T03:19:42.435Z,96389.16
2022-12-09T03:22:13.620Z,96382.75
2022-12-09T03:24:52.446Z,96388.94
2022-12-09T03:27:41.784Z,96389.28
2022-12-09T03:30:10.079Z,96381.75
2022-12-09T03:32:39.336Z,96373.06
2022-12-09T03:35:13.221Z,96393.19
2022-12-09T03:37:42.115Z,96375.78
2022-12-09T03:40:14.737Z,96374.75
2022-12-09T03:43:04.085Z,96388.00
2022-12-09T03:45:31.598Z,96388.00
2022-12-09T03:47:58.642Z,96365.03
2022-12-09T03:50:29.521Z,96367.88
2022-12-09T03:53:06.347Z,96367.88
2022-12-09T03:55:43.961Z,96377.41
2022-12-09T03:58:13.200Z,96362.06
2022-12-09T04:00:40.018Z,96367.72
2022-12-09T04:03:08.040Z,96375.69
2022-12-09T04:05:35.034Z,96371.31
2022-12-09T04:08:01.709Z,96369.69
2022-12-09T04:10:29.052Z,96359.19
2022-12-09T04:12:58.527Z,96374.09
2022-12-09T04:15:25.218Z,96376.91
2022-12-09T04:17:52.166Z,96371.47
2022-12-09T04:20:22.607Z,96352.47
2022-12-09T04:22:51.218Z,96369.75
2022-12-09T04:25:18.122Z,96350.63
2022-12-09T04:27:45.583Z,96346.66
2022-12-09T04:30:12.768Z,96358.97
2022-12-09T04:32:40.088Z,96355.00
2022-12-09T04:35:07.329Z,96366.16
2022-12-09T04:37:34.357Z,96364.53
2022-12-09T04:40:01.343Z,96368.69
2022-12-09T04:42:29.079Z,96351.84
2022-12-09T04:44:55.909Z,96371.28
2022-12-09T04:47:23.038Z,96353.63
2022-12-09T04:49:53.169Z,96362.50
2022-12-09T04:52:22.141Z,96352.19
2022-12-09T04:54:53.318Z,96355.50
2022-12-09T04:57:20.197Z,96360.94
2022-12-09T04:59:47.072Z,96334.53
2022-12-09T05:02:14.233Z,96361.22
2022-12-09T05:04:42.983Z,96336.41
2022-12-09T05:07:11.909Z,96340.88
2022-12-09T05:09:39.093Z,96360.31
2022-12-09T05:12:06.415Z,96340.88
2022-12-09T05:14:32.967Z,96335.22
2022-12-09T05:16:59.618Z,96334.44
2022-12-09T05:19:26.640Z,96346.84
2022-12-09T05:21:56.893Z,96359.59
2022-12-09T05:24:26.651Z,96353.53
2022-12-09T05:26:57.050Z,96342.13
2022-12-09T05:29:27.085Z,96347.66
2022-12-09T05:31:56.842Z,96347.34
2022-12-09T05:34:27.387Z,96349.66
2022-12-09T05:36:57.272Z,96349.66
2022-12-09T05:39:27.321Z,96353.75
2022-12-09T05:41:57.704Z,96339.22
2022-12-09T05:44:27.381Z,96335.56
2022-12-09T05:46:56.467Z,96328.72
2022-12-09T05:49:26.269Z,96345.78
2022-12-09T05:51:56.497Z,96336.66
2022-12-09T05:54:23.212Z,96321.06
2022-12-09T05:56:49.970Z,96345.72
2022-12-09T05:59:17.091Z,96347.06
2022-12-09T06:01:43.991Z,96332.97
2022-12-09T06:04:11.090Z,96345.25
2022-12-09T06:06:38.110Z,96346.41
2022-12-09T06:09:08.672Z,96347.66
2022-12-09T06:11:35.524Z,96346.69
2022-12-09T06:14:02.295Z,96348.50
2022-12-09T06:16:29.082Z,96355.63
2022-12-09T06:18:59.998Z,96345.81
2022-12-09T06:21:29.868Z,96344.69
2022-12-09T06:23:58.570Z,96352.88
2022-12-09T06:26:28.423Z,96353.91
2022-12-09T06:28:58.508Z,96351.75
2022-12-09T06:31:28.465Z,96363.16
2022-12-09T06:33:59.875Z,96368.69
2022-12-09T06:36:29.990Z,96359.06
2022-12-09T06:39:09.682Z,96366.47
2022-12-09T06:41:37.268Z,96359.38
2022-12-09T06:44:04.200Z,96363.16
2022-12-09T06:46:31.291Z,96350.88
2022-12-09T06:49:01.037Z,96372.84
2022-12-09T06:51:31.369Z,96372.13
2022-12-09T06:54:00.961Z,96375.94
2022-12-09T06:56:30.597Z,96368.25
2022-12-09T06:58:59.334Z,96349.75
2022-12-09T07:01:26.209Z,96364.88
2022-12-09T07:03:55.687Z,96362.19
2022-12-09T07:06:38.329Z,96372.34
2022-12-09T07:09:08.100Z,96364.97
2022-12-09T07:11:35.266Z,96374.34
2022-12-09T07:14:02.894Z,96376.50
2022-12-09T07:16:32.844Z,96363.97
2022-12-09T07:19:02.809Z,96398.19
2022-12-09T07:21:33.808Z,96386.00
2022-12-09T07:24:03.877Z,96398.09
2022-12-09T07:26:34.098Z,96393.44
2022-12-09T07:29:05.249Z,96388.84
2022-12-09T07:31:33.986Z,96387.06
2022-12-09T07:34:04.852Z,96378.78
2022-12-09T07:36:36.608Z,96376.38
2022-12-09T07:39:08.442Z,96382.78
2022-12-09T07:41:35.313Z,96390.81
2022-12-09T07:44:02.629Z,96394.94
2022-12-09T07:46:34.059Z,96391.34
2022-12-09T07:49:04.592Z,96403.44
2022-12-09T07:51:34.170Z,96411.69
2022-12-09T07:54:01.719Z,96400.38
2022-12-09T07:56:29.378Z,96421.50
2022-12-09T07:58:57.447Z,96410.59
2022-12-09T08:01:43.838Z,96414.31
2022-12-09T08:04:11.183Z,96418.06
2022-12-09T08:06:38.262Z,96409.88
2022-12-09T08:09:09.320Z,96422.91
2022-12-09T08:11:36.771Z,96427.97
2022-12-09T08:14:12.181Z,96413.72
2022-12-09T08:16:40.433Z,96421.56
2022-12-09T08:19:08.170Z,96411.63
2022-12-09T08:21:35.853Z,96422.72
2022-12-09T08:24:08.079Z,96428.78
2022-12-09T08:26:37.590Z,96413.72
2022-12-09T08:29:09.056Z,96430.94
2022-12-09T08:31:40.965Z,96420.06
2022-12-09T08:34:08.973Z,96434.75
2022-12-09T08:36:37.108Z,96414.41
2022-12-09T08:39:06.109Z,96434.75
2022-12-09T08:41:38.432Z,96416.16
2022-12-09T08:44:11.186Z,96441.41
2022-12-09T08:46:42.532Z,96429.31
2022-12-09T08:49:10.987Z,96434.66
2022-12-09T08:51:38.298Z,96434.97
2022-12-09T08:54:06.011Z,96435.97
2022-12-09T08:56:36.180Z,96427.66
2022-12-09T08:59:06.824Z,96424.00
2022-12-09T09:01:36.749Z,96444.84
2022-12-09T09:04:10.103Z,96445.63
2022-12-09T09:06:39.464Z,96450.50
2022-12-09T09:09:08.349Z,96445.38
2022-12-09T09:11:36.509Z,96436.94
2022-12-09T09:14:08.641Z,96439.31
2022-12-09T09:16:37.433Z,96436.38
2022-12-09T09:19:06.097Z,96424.81
2022-12-09T09:21:37.025Z,96440.84
2022-12-09T09:24:16.739Z,96443.25
2022-12-09T09:26:44.287Z,96447.44
2022-12-09T09:29:12.671Z,96452.25
2022-12-09T09:31:39.944Z,96427.59
2022-12-09T09:34:07.384Z,96454.31
2022-12-09T09:36:37.610Z,96447.44
2022-12-09T09:39:07.127Z,96449.66
2022-12-09T09:41:53.809Z,96444.16
2022-12-09T09:44:28.041Z,96450.91
2022-12-09T09:46:56.922Z,96445.69
2022-12-09T09:50:20.424Z,96450.91
2022-12-09T09:52:47.399Z,96439.81
2022-12-09T09:55:18.463Z,96439.00
2022-12-09T09:57:59.538Z,96452.88
2022-12-09T10:00:38.816Z,96441.97
2022-12-09T10:03:17.643Z,96439.81
2022-12-09T10:05:58.490Z,96445.13
2022-12-09T10:08:40.716Z,96444.47
2022-12-09T10:11:23.418Z,96444.50
2022-12-09T10:14:12.952Z,96444.50
2022-12-09T10:17:08.617Z,96442.59
2022-12-09T10:19:39.238Z,96451.13
2022-12-09T10:22:14.748Z,96430.47
2022-12-09T10:24:57.975Z,96456.63
2022-12-09T10:27:30.457Z,96454.66
2022-12-09T10:30:11.517Z,96447.28
2022-12-09T10:32:39.436Z,96434.66
2022-12-09T10:35:18.040Z,96440.59
2022-12-09T10:37:46.624Z,96448.50
2022-12-09T10:40:23.912Z,96444.09
2022-12-09T10:43:14.535Z,96444.16
2022-12-09T10:46:16.940Z,96443.13
2022-12-09T10:48:48.876Z,96450.34
2022-12-09T10:51:30.195Z,96448.22
2022-12-09T10:54:04.179Z,96451.00
2022-12-09T10:57:04.373Z,96447.16
2022-12-09T10:59:35.361Z,96438.09
2022-12-09T11:02:08.287Z,96439.41
2022-12-09T11:04:43.928Z,96432.59
2022-12-09T11:07:11.098Z,96442.59
2022-12-09T11:10:05.491Z,96441.56
2022-12-09T11:12:41.310Z,96426.47
2022-12-09T11:15:43.604Z,96444.16
2022-12-09T11:18:28.879Z,96443.97
2022-12-09T11:21:20.472Z,96441.66
2022-12-09T11:24:02.261Z,96451.81
2022-12-09T11:26:36.003Z,96454.75
2022-12-09T11:29:19.462Z,96453.25
2022-12-09T11:31:48.432Z,96448.47
2022-12-09T11:34:26.330Z,96449.41
2022-12-09T11:36:56.689Z,96437.00
2022-12-09T11:39:27.290Z,96448.13
2022-12-09T11:42:22.941Z,96445.84
2022-12-09T11:44:56.850Z,96444.56
2022-12-09T11:50:42.326Z,96442.63
2022-12-09T11:53:12.069Z,96438.56
2022-12-09T11:55:48.258Z,96436.47
2022-12-09T11:58:24.426Z,96436.97
2022-12-09T12:01:29.591Z,96445.84
2022-12-09T12:04:03.795Z,96438.16
2022-12-09T12:06:58.946Z,96429.44
2022-12-09T12:09:58.769Z,96442.09
2022-12-09T12:12:36.457Z,96441.59
2022-12-09T12:15:17.555Z,96433.56
2022-12-09T12:17:50.491Z,96415.25
2022-12-09T12:20:17.323Z,96424.22
2022-12-09T12:23:23.715Z,96423.72
2022-12-09T12:25:54.774Z,96425.72
2022-12-09T12:28:56.661Z,96411.81
2022-12-09T12:31:49.937Z,96408.88
2022-12-09T12:34:25.696Z,96403.66
2022-12-09T12:37:31.037Z,96405.78
2022-12-09T12:40:27.138Z,96417.56
2022-12-09T12:43:34.097Z,96416.41
2022-12-09T12:46:26.864Z,96428.03
2022-12-09T12:49:08.613Z,96423.16
2022-12-09T12:51:51.148Z,96435.59
2022-12-09T12:54:51.185Z,96433.13
2022-12-09T12:57:36.310Z,96431.16
2022-12-09T13:00:09.707Z,96430.31
2022-12-09T13:02:36.588Z,96433.28
2022-12-09T13:05:21.216Z,96447.00
2022-12-09T13:08:06.162Z,96439.13
2022-12-09T13:10:41.929Z,96441.72
2022-12-09T13:13:20.111Z,96444.81
2022-12-09T13:15:51.677Z,96438.78
2022-12-09T13:18:50.790Z,96455.13
2022-12-09T13:21:18.603Z,96454.78
2022-12-09T13:23:48.100Z,96455.44
2022-12-09T13:26:40.887Z,96446.63
2022-12-09T13:29:30.147Z,96446.31
2022-12-09T13:32:21.774Z,96443.53
2022-12-09T13:34:54.503Z,96432.38
2022-12-09T13:37:39.344Z,96436.50
2022-12-09T13:40:36.854Z,96441.41
2022-12-09T13:43:03.442Z,96447.16
2022-12-09T13:45:34.398Z,96446.81
2022-12-09T13:48:16.957Z,96449.75
2022-12-09T13:51:00.010Z,96455.63
2022-12-09T13:53:45.847Z,96452.00
2022-12-09T13:56:26.994Z,96445.94
2022-12-09T13:59:24.722Z,96444.97
2022-12-09T14:01:53.704Z,96444.31
2022-12-09T14:04:28.184Z,96448.22
2022-12-09T14:06:57.732Z,96446.75
2022-12-09T14:09:36.730Z,96441.66
2022-12-09T14:12:12.541Z,96448.56
2022-12-09T14:15:02.087Z,96448.88
2022-12-09T14:17:31.408Z,96452.59
2022-12-09T14:20:22.857Z,96458.84
2022-12-09T14:23:12.785Z,96463.75
2022-12-09T14:25:57.442Z,96457.38
2022-12-09T14:28:37.915Z,96457.31
2022-12-09T14:31:08.640Z,96457.00
2022-12-09T14:33:46.521Z,96472.88
2022-12-09T14:36:12.996Z,96478.75
2022-12-09T14:39:23.006Z,96474.09
2022-12-09T14:41:54.024Z,96475.38
2022-12-09T14:44:33.010Z,96482.28
2022-12-09T14:47:29.900Z,96493.22
2022-12-09T14:50:07.964Z,96492.22
2022-12-09T14:52:34.682Z,96494.25
2022-12-09T14:55:08.158Z,96493.13
2022-12-09T14:57:46.015Z,96487.19
2022-12-09T15:00:30.276Z,96492.97
2022-12-09T15:03:30.723Z,96492.28
2022-12-09T15:06:09.202Z,96494.78
2022-12-09T15:08:41.160Z,96485.59
2022-12-09T15:11:18.269Z,96489.78
2022-12-09T15:13:48.461Z,96494.41
2022-12-09T15:16:25.209Z,96504.41
2022-12-09T15:18:53.402Z,96509.78
2022-12-09T15:21:28.505Z,96510.13
2022-12-09T15:23:55.696Z,96504.72
2022-12-09T15:26:32.395Z,96509.13
2022-12-09T15:29:01.004Z,96516.00
2022-12-09T15:31:30.062Z,96506.94
2022-12-09T15:33:59.368Z,96514.03
2022-12-09T15:36:45.590Z,96519.00
2022-12-09T15:39:27.771Z,96519.31
2022-12-09T15:42:11.398Z,96516.66
2022-12-09T15:44:46.779Z,96513.38
2022-12-09T15:47:23.447Z,96507.78
2022-12-09T15:50:00.911Z,96515.69
2022-12-09T15:52:33.820Z,96506.81
2022-12-09T15:55:10.020Z,96507.72
2022-12-09T15:57:41.104Z,96506.53
2022-12-09T16:00:11.268Z,96518.47
2022-12-09T16:02:41.218Z,96511.63
2022-12-09T16:05:10.400Z,96514.25
2022-12-09T16:07:59.748Z,96519.84
2022-12-09T16:10:27.674Z,96525.19
2022-12-09T16:13:11.981Z,96520.78
2022-12-09T16:15:47.689Z,96526.56
2022-12-09T16:18:18.790Z,96510.38
2022-12-09T16:20:57.576Z,96526.00
2022-12-09T16:23:25.881Z,96525.53
2022-12-09T16:26:04.907Z,96529.50
2022-12-09T16:28:34.798Z,96530.94
2022-12-09T16:31:16.404Z,96533.63
2022-12-09T16:33:48.128Z,96535.03
2022-12-09T16:36:20.089Z,96540.34
2022-12-09T16:39:23.873Z,96531.16
2022-12-09T16:41:53.489Z,96550.25
2022-12-09T16:44:29.769Z,96547.25
2022-12-09T16:47:19.469Z,96554.66
2022-12-09T16:49:48.035Z,96562.91
2022-12-09T16:52:19.691Z,96566.16
2022-12-09T16:54:48.284Z,96564.34
2022-12-09T16:57:17.714Z,96576.06
2022-12-09T16:59:45.383Z,96568.53
2022-12-09T17:02:25.139Z,96573.16
2022-12-09T17:04:52.377Z,96579.06
2022-12-09T17:07:19.111Z,96551.66
2022-12-09T17:09:46.094Z,96566.88
2022-12-09T17:12:12.677Z,96560.53
2022-12-09T17:14:39.221Z,96561.34
2022-12-09T17:17:08.358Z,96575.75
2022-12-09T17:19:34.979Z,96557.69
2022-12-09T17:22:03.731Z,96570.31
2022-12-09T17:24:30.295Z,96568.09
2022-12-09T17:26:56.806Z,96578.25
2022-12-09T17:29:23.333Z,96567.69
2022-12-09T17:31:52.426Z,96586.59
2022-12-09T17:34:19.562Z,96576.97
2022-12-09T17:36:46.213Z,96598.06
2022-12-09T17:39:12.957Z,96603.97
2022-12-09T17:41:39.684Z,96578.75
2022-12-09T17:44:08.968Z,96598.97
2022-12-09T17:46:38.403Z,96585.69
2022-12-09T17:49:04.947Z,96581.44
2022-12-09T17:51:35.951Z,96595.28
2022-12-09T17:54:03.547Z,96580.19
2022-12-09T17:56:30.085Z,96590.25
2022-12-09T17:58:59.923Z,96576.22
2022-12-09T18:01:26.874Z,96592.41
2022-12-09T18:04:01.617Z,96597.09
2022-12-09T18:06:34.726Z,96602.41
2022-12-09T18:09:03.025Z,96610.00
2022-12-09T18:11:29.687Z,96592.38
2022-12-09T18:13:57.564Z,96601.22
2022-12-09T18:16:24.275Z,96607.47
2022-12-09T18:18:50.881Z,96612.16
2022-12-09T18:21:19.738Z,96612.09
2022-12-09T18:23:48.220Z,96603.34
2022-12-09T18:26:18.441Z,96607.78
2022-12-09T18:28:45.514Z,96604.22
2022-12-09T18:31:19.061Z,96598.69
2022-12-09T18:33:45.916Z,96598.94
2022-12-09T18:36:14.873Z,96591.31
2022-12-09T18:38:48.365Z,96591.16
2022-12-09T18:41:23.754Z,96599.06
2022-12-09T18:43:52.344Z,96596.53
2022-12-09T18:46:25.483Z,96601.22
2022-12-09T18:48:58.197Z,96603.44
2022-12-09T18:51:25.998Z,96597.47
2022-12-09T18:53:52.851Z,96622.84
2022-12-09T18:56:21.591Z,96629.69
2022-12-09T19:01:39.733Z,96618.03
2022-12-09T19:04:22.781Z,96646.09
2022-12-09T19:06:54.881Z,96626.34
2022-12-09T19:09:28.500Z,96636.59
2022-12-09T19:11:55.010Z,96626.03
2022-12-09T19:14:23.107Z,96639.25
2022-12-09T19:16:50.689Z,96631.97
2022-12-09T19:19:20.270Z,96637.19
2022-12-09T19:21:47.132Z,96637.19
2022-12-09T19:24:28.479Z,96642.56
2022-12-09T19:26:57.815Z,96648.63
2022-12-09T19:29:25.053Z,96642.28
2022-12-09T19:31:52.955Z,96647.66
2022-12-09T19:34:27.377Z,96654.09
2022-12-09T19:37:03.294Z,96665.94
2022-12-09T19:39:31.465Z,96657.97
2022-12-09T19:41:59.075Z,96651.94
2022-12-09T19:44:52.654Z,96659.88
2022-12-09T19:47:13.167Z,96655.81
2022-12-09T19:49:44.347Z,96654.41
2022-12-09T19:52:12.046Z,96662.50
2022-12-09T19:54:41.679Z,96669.22
2022-12-09T19:57:11.525Z,96655.38
2022-12-09T19:59:41.753Z,96668.66
2022-12-09T20:02:12.573Z,96661.53
2022-12-09T20:04:50.770Z,96658.09
2022-12-09T20:07:18.723Z,96680.47
2022-12-09T20:09:45.243Z,96674.53
2022-12-09T20:12:11.989Z,96689.78
2022-12-09T20:14:42.040Z,96681.13
2022-12-09T20:17:11.718Z,96671.09
2022-12-09T20:19:41.659Z,96685.94
2022-12-09T20:22:09.709Z,96684.72
2022-12-09T20:24:42.111Z,96677.09
2022-12-09T20:27:11.960Z,96706.25
2022-12-09T20:29:41.278Z,96675.69
2022-12-09T20:32:10.772Z,96696.81
2022-12-09T20:34:39.242Z,96698.31
2022-12-09T20:37:06.086Z,96695.69
2022-12-09T20:39:32.784Z,96688.72
2022-12-09T20:41:59.894Z,96699.84
2022-12-09T20:44:26.722Z,96700.50
2022-12-09T20:46:53.521Z,96693.13
2022-12-09T20:49:26.063Z,96685.84
2022-12-09T20:51:53.115Z,96698.06
2022-12-09T20:54:19.668Z,96696.81
2022-12-09T20:56:46.283Z,96691.34
2022-12-09T20:59:13.712Z,96681.34
2022-12-09T21:01:41.196Z,96705.59
2022-12-09T21:04:13.986Z,96710.69
2022-12-09T21:06:41.383Z,96705.34
2022-12-09T21:09:14.823Z,96709.03
2022-12-09T21:11:41.513Z,96724.31
2022-12-09T21:14:11.952Z,96694.25
2022-12-09T21:16:42.503Z,96723.34
2022-12-09T21:19:14.681Z,96723.19
2022-12-09T21:21:43.420Z,96725.53
2022-12-09T21:24:14.123Z,96718.09
2022-12-09T21:26:41.554Z,96726.63
2022-12-09T21:29:12.509Z,96731.56
2022-12-09T21:31:42.615Z,96712.22
2022-12-09T21:34:14.731Z,96723.06
2022-12-09T21:36:43.307Z,96726.88
2022-12-09T21:39:13.833Z,96725.13
2022-12-09T21:41:43.975Z,96717.56
2022-12-09T21:44:17.452Z,96719.22
2022-12-09T21:46:44.330Z,96709.47
2022-12-09T21:49:13.948Z,96704.53
2022-12-09T21:51:43.698Z,96723.75
2022-12-09T21:54:13.765Z,96729.81
2022-12-09T21:56:43.600Z,96711.69
2022-12-09T21:59:15.185Z,96731.13
2022-12-09T22:01:43.001Z,96719.06
2022-12-09T22:04:16.380Z,96719.38
2022-12-09T22:06:48.159Z,96711.25
2022-12-09T22:09:16.985Z,96722.78
2022-12-09T22:11:44.328Z,96729.63
2022-12-09T22:14:15.045Z,96727.19
2022-12-09T22:16:53.351Z,96740.06
2022-12-09T22:19:21.022Z,96743.09
2022-12-09T22:21:48.787Z,96748.03
2022-12-09T22:24:16.193Z,96746.25
2022-12-09T22:26:46.429Z,96733.34
2022-12-09T22:29:17.786Z,96748.03
2022-12-09T22:31:45.746Z,96752.41
2022-12-09T22:34:17.436Z,96759.00
2022-12-09T22:36:48.938Z,96763.81
2022-12-09T22:39:18.345Z,96765.06
2022-12-09T22:41:48.387Z,96761.63
2022-12-09T22:44:17.726Z,96748.59
2022-12-09T22:46:47.944Z,96744.59
2022-12-09T22:49:17.989Z,96774.81
2022-12-09T22:51:46.178Z,96772.88
2022-12-09T22:54:17.468Z,96782.63
2022-12-09T22:56:47.315Z,96774.78
2022-12-09T22:59:18.019Z,96788.91
2022-12-09T23:01:50.864Z,96788.25
2022-12-09T23:04:21.830Z,96793.31
2022-12-09T23:06:50.032Z,96794.69
2022-12-09T23:09:20.197Z,96790.81
2022-12-09T23:11:46.844Z,96782.88
2022-12-09T23:14:16.547Z,96807.56
2022-12-09T23:16:45.654Z,96799.88
2022-12-09T23:19:13.243Z,96804.81
2022-12-09T23:21:43.053Z,96801.00
2022-12-09T23:24:24.776Z,96787.63
2022-12-09T23:26:51.605Z,96803.84
2022-12-09T23:29:18.098Z,96794.41
2022-12-09T23:31:46.724Z,96805.38
2022-12-09T23:34:16.871Z,96801.94
2022-12-09T23:36:50.255Z,96786.41
2022-12-09T23:39:19.889Z,96813.69
2022-12-09T23:41:49.189Z,96791.47
2022-12-09T23:44:18.521Z,96794.91
2022-12-09T23:46:47.707Z,96805.88
2022-12-09T23:49:17.402Z,96811.91
2022-12-09T23:51:44.187Z,96804.91
2022-12-09T23:54:17.641Z,96798.03
2022-12-09T23:56:52.454Z,96815.16
2022-12-09T23:59:21.433Z,96803.25
